^^
Grace C. Lehan Memorial Weather Station Historical Data
Daily Summary for May 23, 2021 Units:  Metric    English   Both
Daily Weekly Monthly Yearly
  High: Low: Average:
Temperature: 26.9 °C 21.4 °C 23.7 °C
Dew Point: 22.9 °C 20.4 °C 21.4 °C
Humidity: 95% 75% 88%
Wind Speed: 6.6km/h 0km/h 1.1km/h
Wind Gust: 25.7km/h - -
Wind- - SE
Pressure: 1016.1 hPa 1013.4 hPa -
Precipitation: 0 mm    
 
 
Tabular Data for May 23, 2021
Time Temperature Dew Point Pressure Wind Wind Speed Wind Gust Humidity Rainfall Rate (Hourly) solar
00:09 22.2 °C 21.1 °C 1016.1 hPa Calm     93% 1.02 mm 0 W/m2
00:14 22.2 °C 21.1 °C 1016.1 hPa Calm     93% 1.02 mm 0 W/m2
00:19 22.2 °C 21.1 °C 1016.1 hPa Calm     93% 1.02 mm 0 W/m2
00:24 22.2 °C 21 °C 1016.1 hPa Calm     93% 1.02 mm 0 W/m2
00:29 22.2 °C 21 °C 1016.1 hPa Calm     93% 1.02 mm 0 W/m2
00:34 22.1 °C 20.9 °C 1016.1 hPa Calm     93% 1.02 mm 0 W/m2
00:39 22.1 °C 20.9 °C 1016.1 hPa SSE 0.2 km/h 4.8 km/h 93% 1.02 mm 0 W/m2
00:44 22.1 °C 20.9 °C 1016.1 hPa Calm   4.8 km/h 93% 1.02 mm 0 W/m2
00:49 22.1 °C 21 °C 1016.1 hPa Calm   4.8 km/h 93.6% 1.02 mm 0 W/m2
00:54 22.1 °C 21.1 °C 1016.1 hPa Calm   4.8 km/h 94% 1.02 mm 0 W/m2
00:59 22 °C 21 °C 1016.1 hPa Calm   4.8 km/h 94% 1.02 mm 0 W/m2
01:04 22 °C 21 °C 1016.1 hPa Calm   4.8 km/h 94% 1.02 mm 0 W/m2
01:09 21.9 °C 20.9 °C 1016.1 hPa Calm     94% 0 mm 0 W/m2
01:14 21.9 °C 20.9 °C 1016.1 hPa Calm     94% 0 mm 0 W/m2
01:19 21.9 °C 20.9 °C 1016.1 hPa Calm     94% 0 mm 0 W/m2
01:24 21.9 °C 20.8 °C 1016.1 hPa Calm     93.4% 0 mm 0 W/m2
01:29 21.8 °C 20.7 °C 1016.1 hPa Calm     93.4% 0 mm 0 W/m2
01:34 21.8 °C 20.8 °C 1016.1 hPa Calm     94% 0 mm 0 W/m2
01:39 21.8 °C 20.8 °C 1016.1 hPa Calm     94% 0 mm 0 W/m2
01:44 21.8 °C 20.8 °C 1016.1 hPa Calm     94% 0 mm 0 W/m2
01:49 21.8 °C 20.8 °C 1016.1 hPa Calm     94% 0 mm 0 W/m2
01:54 21.7 °C 20.7 °C 1016.1 hPa Calm   1.6 km/h 94% 0 mm 0 W/m2
01:59 21.7 °C 20.7 °C 1016.1 hPa Calm   1.6 km/h 94% 0 mm 0 W/m2
02:04 21.7 °C 20.7 °C 1015.8 hPa Calm   1.6 km/h 94% 0 mm 0 W/m2
02:09 21.7 °C 20.7 °C 1015.8 hPa Calm     94% 0 mm 0 W/m2
02:14 21.7 °C 20.7 °C 1015.8 hPa Calm     94% 0 mm 0 W/m2
02:19 21.7 °C 20.7 °C 1015.8 hPa Calm     94% 0 mm 0 W/m2
02:24 21.7 °C 20.7 °C 1015.8 hPa Calm     94% 0 mm 0 W/m2
02:29 21.7 °C 20.7 °C 1015.8 hPa Calm     94% 0 mm 0 W/m2
02:34 21.7 °C 20.7 °C 1015.8 hPa Calm     94% 0 mm 0 W/m2
02:39 21.7 °C 20.7 °C 1015.8 hPa Calm     94% 0 mm 0 W/m2
02:44 21.6 °C 20.6 °C 1015.8 hPa Calm     94% 0 mm 0 W/m2
02:49 21.6 °C 20.6 °C 1015.8 hPa Calm     94% 0 mm 0 W/m2
02:54 21.6 °C 20.6 °C 1015.8 hPa Calm     94% 0 mm 0 W/m2
02:59 21.6 °C 20.6 °C 1015.8 hPa Calm     94% 0 mm 0 W/m2
03:04 21.5 °C 20.5 °C 1015.8 hPa Calm     94% 0 mm 0 W/m2
03:09 21.5 °C 20.5 °C 1015.8 hPa Calm     94% 0 mm 0 W/m2
03:14 21.4 °C 20.4 °C 1015.8 hPa Calm     94% 0 mm 0 W/m2
03:19 21.4 °C 20.4 °C 1015.5 hPa Calm     94% 0 mm 0 W/m2
03:24 21.5 °C 20.6 °C 1015.5 hPa Calm     94.5% 0 mm 0 W/m2
03:29 21.5 °C 20.7 °C 1015.5 hPa Calm     95% 0 mm 0 W/m2
03:34 21.6 °C 20.7 °C 1015.5 hPa Calm     95% 0 mm 0 W/m2
03:39 21.6 °C 20.7 °C 1015.5 hPa Calm     95% 0 mm 0 W/m2
03:44 21.6 °C 20.7 °C 1015.1 hPa Calm     95% 0 mm 0 W/m2
03:49 21.6 °C 20.7 °C 1015.1 hPa Calm     95% 0 mm 0 W/m2
03:54 21.6 °C 20.7 °C 1015.1 hPa Calm   1.6 km/h 95% 0 mm 0 W/m2
03:59 21.6 °C 20.8 °C 1015.1 hPa Calm   1.6 km/h 95% 0 mm 0 W/m2
04:00 21.6 °C 20.8 °C 1015.1 hPa Calm   1.6 km/h 95% 0 mm 0 W/m2
04:09 21.6 °C 20.8 °C 1015.1 hPa Calm     95% 0 mm 0 W/m2
04:14 21.6 °C 20.8 °C 1015.1 hPa Calm   1.6 km/h 95% 0 mm 0 W/m2
04:19 21.7 °C 20.8 °C 1015.1 hPa Calm   1.6 km/h 95% 0 mm 0 W/m2
04:24 21.7 °C 20.8 °C 1015.1 hPa Calm   1.6 km/h 95% 0 mm 0 W/m2
04:29 21.7 °C 20.8 °C 1015.1 hPa Calm   1.6 km/h 95% 0 mm 0 W/m2
04:34 21.7 °C 20.8 °C 1015.1 hPa Calm   1.6 km/h 95% 0 mm 0 W/m2
04:39 21.7 °C 20.8 °C 1015.1 hPa Calm     95% 0 mm 0 W/m2
04:44 21.6 °C 20.8 °C 1015.1 hPa Calm     95% 0 mm 0 W/m2
04:49 21.6 °C 20.8 °C 1015.1 hPa Calm     95% 0 mm 0 W/m2
04:54 21.6 °C 20.8 °C 1015.1 hPa Calm     95% 0 mm 0 W/m2
04:59 21.6 °C 20.8 °C 1014.8 hPa Calm     95% 0 mm 0 W/m2
05:04 21.6 °C 20.7 °C 1015.1 hPa SE 0.2 km/h 4.8 km/h 95% 0 mm 0 W/m2
05:09 21.6 °C 20.7 °C 1014.8 hPa Calm   4.8 km/h 95% 0 mm 0 W/m2
05:14 21.6 °C 20.7 °C 1014.8 hPa Calm   4.8 km/h 94.9% 0 mm 0 W/m2
05:19 21.5 °C 20.5 °C 1014.8 hPa Calm   4.8 km/h 94% 0 mm 0 W/m2
05:24 21.5 °C 20.5 °C 1014.8 hPa Calm   4.8 km/h 94% 0 mm 0 W/m2
05:29 21.5 °C 20.5 °C 1014.8 hPa Calm   4.8 km/h 94% 0 mm 0 W/m2
05:34 21.5 °C 20.5 °C 1014.8 hPa Calm   4.8 km/h 94% 0 mm 0 W/m2
05:39 21.4 °C 20.4 °C 1014.8 hPa Calm     94% 0 mm 0 W/m2
05:44 21.4 °C 20.4 °C 1014.8 hPa Calm   1.6 km/h 94% 0 mm 0 W/m2
05:49 21.4 °C 20.4 °C 1014.8 hPa Calm   1.6 km/h 94.2% 0 mm 0 W/m2
05:54 21.4 °C 20.4 °C 1014.8 hPa SE 0.2 km/h 1.6 km/h 94% 0 mm 0 W/m2
05:59 21.4 °C 20.5 °C 1014.8 hPa Calm   1.6 km/h 94.4% 0 mm 0 W/m2
06:04 21.4 °C 20.5 °C 1014.8 hPa Calm   1.6 km/h 94.3% 0 mm 0 W/m2
06:09 21.5 °C 20.5 °C 1014.8 hPa Calm     94% 0 mm 0 W/m2
06:14 21.5 °C 20.5 °C 1014.8 hPa Calm     94% 0 mm 0 W/m2
06:19 21.5 °C 20.5 °C 1014.8 hPa Calm     94% 0 mm 0 W/m2
06:24 21.5 °C 20.5 °C 1014.8 hPa Calm     94% 0 mm 0 W/m2
06:29 21.4 °C 20.4 °C 1014.8 hPa Calm     94% 0 mm 0 W/m2
06:34 21.4 °C 20.4 °C 1014.8 hPa Calm     94% 0 mm 0 W/m2
06:39 21.4 °C 20.4 °C 1014.8 hPa Calm     94% 0 mm 0 W/m2
06:44 21.4 °C 20.4 °C 1014.8 hPa Calm     94% 0 mm 0 W/m2
06:49 21.4 °C 20.4 °C 1014.8 hPa Calm     94% 0 mm 5 W/m2
06:54 21.4 °C 20.4 °C 1014.8 hPa Calm   1.6 km/h 94% 0 mm 9 W/m2
06:59 21.4 °C 20.4 °C 1014.8 hPa Calm   1.6 km/h 94% 0 mm 26 W/m2
07:04 21.4 °C 20.4 °C 1014.8 hPa Calm   1.6 km/h 94.1% 0 mm 25 W/m2
07:09 21.5 °C 20.7 °C 1014.8 hPa Calm     95% 0 mm 37 W/m2
07:14 21.6 °C 20.7 °C 1014.8 hPa ESE 0.2 km/h 4.8 km/h 95% 0 mm 54 W/m2
07:19 21.6 °C 20.8 °C 1014.8 hPa Calm   4.8 km/h 95% 0 mm 53 W/m2
07:24 21.7 °C 20.9 °C 1014.8 hPa Calm   4.8 km/h 95% 0 mm 53 W/m2
07:29 21.8 °C 20.8 °C 1014.8 hPa SE 1 km/h 11.3 km/h 94% 0 mm 42 W/m2
07:34 21.9 °C 20.8 °C 1014.8 hPa Calm   11.3 km/h 94% 0 mm 51 W/m2
07:39 21.9 °C 20.9 °C 1015.1 hPa ESE 0.2 km/h 3.2 km/h 94% 0 mm 69 W/m2
07:44 22.1 °C 21.1 °C 1014.8 hPa ESE 0.2 km/h 3.2 km/h 94% 0 mm 67 W/m2
07:49 22.2 °C 21.1 °C 1014.8 hPa Calm   3.2 km/h 94% 0 mm 67 W/m2
07:54 22.3 °C 21.2 °C 1014.8 hPa Calm   3.2 km/h 94% 0 mm 74 W/m2
07:59 22.4 °C 21.2 °C 1014.8 hPa Calm   3.2 km/h 93.1% 0 mm 63 W/m2
08:00 22.4 °C 21.3 °C 1014.8 hPa SE 3.2 km/h 3.2 km/h 93% 0 mm 58 W/m2
08:09 22.6 °C 21.3 °C 1014.8 hPa SSE 0.2 km/h 3.2 km/h 92.7% 0 mm 91 W/m2
08:14 22.6 °C 21.3 °C 1014.8 hPa Calm   3.2 km/h 92% 0 mm 91 W/m2
08:19 22.7 °C 21.3 °C 1014.8 hPa SE 0.5 km/h 6.4 km/h 92% 0 mm 83 W/m2
08:24 22.7 °C 21.4 °C 1014.8 hPa SSE 0.2 km/h 6.4 km/h 92% 0 mm 125 W/m2
08:29 22.8 °C 21.4 °C 1015.1 hPa ESE 0.2 km/h 6.4 km/h 92% 0 mm 139 W/m2
08:34 22.9 °C 21.6 °C 1015.1 hPa ESE 1 km/h 6.4 km/h 92% 0 mm 149 W/m2
08:39 23.1 °C 21.5 °C 1015.1 hPa ESE 0.5 km/h 6.4 km/h 91% 0 mm 137 W/m2
08:44 23.2 °C 21.7 °C 1015.1 hPa SE 1.4 km/h 9.7 km/h 91% 0 mm 193 W/m2
08:49 23.4 °C 21.8 °C 1015.1 hPa Calm   9.7 km/h 91% 0 mm 211 W/m2
08:54 23.6 °C 22 °C 1015.1 hPa ESE 0.3 km/h 9.7 km/h 90.6% 0 mm 207 W/m2
08:59 23.8 °C 21.9 °C 1015.1 hPa Calm   9.7 km/h 89.2% 0 mm 360 W/m2
09:04 24.1 °C 22.1 °C 1015.1 hPa SW 0.8 km/h 9.7 km/h 89% 0 mm 469 W/m2
09:09 24.3 °C 22.3 °C 1015.1 hPa SE 0.5 km/h 11.3 km/h 88.2% 0 mm 510 W/m2
09:14 24.7 °C 22.3 °C 1015.1 hPa ESE 2.1 km/h 16.1 km/h 86.7% 0 mm 432 W/m2
09:19 24.9 °C 22.2 °C 1015.1 hPa SSE 1.3 km/h 16.1 km/h 85% 0 mm 448 W/m2
09:24 25.2 °C 22.4 °C 1015.1 hPa ESE 1 km/h 16.1 km/h 84.8% 0 mm 594 W/m2
09:30 25.6 °C 22.4 °C 1015.1 hPa ESE 1.6 km/h 16.1 km/h 83% 0 mm 422 W/m2
10:00 26.2 °C 22.9 °C 1015.1 hPa Calm   14.5 km/h 82% 0 mm 351 W/m2
10:30 26.9 °C 22.5 °C 1015.1 hPa ESE 1.6 km/h 19.3 km/h 77% 0 mm 513 W/m2
11:00 26.2 °C 22.2 °C 1015.1 hPa SE 3.2 km/h 25.7 km/h 79% 0 mm 265 W/m2
11:30 26.2 °C 21.8 °C 1014.8 hPa ESE 1.6 km/h 20.9 km/h 77% 0 mm 227 W/m2
12:04 26.2 °C 21.7 °C 1014.8 hPa ESE 1.4 km/h 6.4 km/h 76% 0 mm 102 W/m2
12:09 26.2 °C 21.8 °C 1014.8 hPa ESE 2.1 km/h 11.3 km/h 76.8% 0 mm 329 W/m2
12:14 26.1 °C 21.9 °C 1014.8 hPa SE 1.1 km/h 11.3 km/h 77.6% 0 mm 250 W/m2
12:19 26.1 °C 21.8 °C 1014.8 hPa SSW 0.6 km/h 14.5 km/h 77.3% 0 mm 302 W/m2
12:24 26.2 °C 22.1 °C 1014.8 hPa SSE 0.3 km/h 14.5 km/h 78% 0 mm 265 W/m2
12:29 26.4 °C 22.3 °C 1014.8 hPa East 0.5 km/h 14.5 km/h 78% 0 mm 264 W/m2
12:34 26.7 °C 22.3 °C 1014.4 hPa SSE 0.6 km/h 14.5 km/h 77% 0 mm 264 W/m2
12:39 26.8 °C 22.2 °C 1014.4 hPa ESE 1.8 km/h 20.9 km/h 75.9% 0 mm 281 W/m2
12:44 26.7 °C 21.9 °C 1014.4 hPa SSE 3.1 km/h 20.9 km/h 75.2% 0 mm 290 W/m2
12:49 26.6 °C 21.9 °C 1014.4 hPa SE 3.7 km/h 20.9 km/h 75.3% 0 mm 271 W/m2
12:54 26.7 °C 22 °C 1014.4 hPa SE 3.5 km/h 20.9 km/h 75.4% 0 mm 243 W/m2
12:59 26.8 °C 22.1 °C 1014.4 hPa SSE 2.9 km/h 20.9 km/h 75.6% 0 mm 223 W/m2
13:04 26.9 °C 22.1 °C 1014.4 hPa SE 4.3 km/h 20.9 km/h 75.2% 0 mm 214 W/m2
13:09 26.8 °C 21.9 °C 1014.4 hPa SE 4 km/h 19.3 km/h 75% 0 mm 250 W/m2
13:14 26.7 °C 22.1 °C 1014.1 hPa SE 4.8 km/h 20.9 km/h 76% 0 mm 318 W/m2
13:19 26.6 °C 21.9 °C 1014.4 hPa SE 3.4 km/h 20.9 km/h 75.9% 0 mm 223 W/m2
13:24 26.4 °C 21.8 °C 1014.1 hPa SE 3.7 km/h 20.9 km/h 76% 0 mm 151 W/m2
13:29 26.3 °C 21.9 °C 1014.1 hPa ESE 1.8 km/h 20.9 km/h 76.9% 0 mm 234 W/m2
13:34 26.2 °C 21.7 °C 1014.1 hPa SE 3.2 km/h 20.9 km/h 76.5% 0 mm 234 W/m2
13:39 26.2 °C 21.9 °C 1014.1 hPa SE 0.8 km/h 17.7 km/h 77% 0 mm 292 W/m2
13:44 26.3 °C 21.9 °C 1014.1 hPa ESE 0.5 km/h 17.7 km/h 77% 0 mm 218 W/m2
13:49 26.3 °C 22.1 °C 1014.1 hPa SSE 1 km/h 17.7 km/h 77.2% 0 mm 178 W/m2
13:54 26.4 °C 21.9 °C 1014.4 hPa SE 2.9 km/h 17.7 km/h 76.2% 0 mm 251 W/m2
13:59 26.4 °C 21.8 °C 1014.4 hPa SE 3.5 km/h 17.7 km/h 75.9% 0 mm 179 W/m2
14:04 26.3 °C 21.6 °C 1014.4 hPa ESE 2.7 km/h 17.7 km/h 75.3% 0 mm 264 W/m2
14:09 26.3 °C 21.6 °C 1014.4 hPa SSE 4.3 km/h 16.1 km/h 75.1% 0 mm 306 W/m2
14:14 26.4 °C 21.7 °C 1014.4 hPa SE 2.9 km/h 16.1 km/h 75% 0 mm 265 W/m2
14:19 26.6 °C 21.9 °C 1014.4 hPa ESE 1 km/h 16.1 km/h 75.5% 0 mm 287 W/m2
14:24 26.7 °C 21.9 °C 1014.1 hPa SE 4.2 km/h 19.3 km/h 75% 0 mm 165 W/m2
14:29 26.6 °C 21.8 °C 1014.4 hPa SE 1.6 km/h 19.3 km/h 75% 0 mm 234 W/m2
14:34 26.5 °C 21.9 °C 1014.4 hPa SE 2.1 km/h 19.3 km/h 75.9% 0 mm 239 W/m2
14:39 26.5 °C 21.8 °C 1014.1 hPa SE 3.7 km/h 17.7 km/h 75.6% 0 mm 125 W/m2
14:44 26.4 °C 21.8 °C 1014.1 hPa SE 1.3 km/h 17.7 km/h 76% 0 mm 438 W/m2
14:49 26.4 °C 21.9 °C 1014.1 hPa SE 2.4 km/h 17.7 km/h 76.4% 0 mm 392 W/m2
14:54 26.6 °C 22.1 °C 1014.1 hPa ESE 1.1 km/h 17.7 km/h 76.4% 0 mm 214 W/m2
14:59 26.7 °C 22.1 °C 1014.1 hPa ESE 1.3 km/h 17.7 km/h 76% 0 mm 223 W/m2
15:04 26.7 °C 22.1 °C 1013.8 hPa ESE 2.3 km/h 17.7 km/h 76% 0 mm 139 W/m2
15:09 26.5 °C 22 °C 1013.8 hPa SSE 0.6 km/h 14.5 km/h 76.2% 0 mm 179 W/m2
15:14 26.4 °C 21.9 °C 1013.8 hPa SSE 1.1 km/h 14.5 km/h 76.6% 0 mm 193 W/m2
15:19 26.4 °C 22 °C 1013.8 hPa SE 1.3 km/h 14.5 km/h 76.9% 0 mm 264 W/m2
15:24 26.4 °C 22.1 °C 1013.4 hPa ESE 0.8 km/h 14.5 km/h 77% 0 mm 251 W/m2
15:29 26.4 °C 21.9 °C 1013.4 hPa ESE 1.9 km/h 16.1 km/h 76.2% 0 mm 91 W/m2
15:34 26.3 °C 21.7 °C 1013.8 hPa ESE 5.5 km/h 22.5 km/h 76.1% 0 mm 76 W/m2
15:39 26.1 °C 21.7 °C 1013.4 hPa SE 1.6 km/h 22.5 km/h 77.1% 0 mm 62 W/m2
15:44 25.9 °C 21.8 °C 1013.4 hPa ESE 1.1 km/h 22.5 km/h 78.1% 0 mm 93 W/m2
15:49 25.8 °C 21.9 °C 1013.4 hPa ESE 3.2 km/h 22.5 km/h 79% 0 mm 77 W/m2
15:54 25.7 °C 21.8 °C 1013.4 hPa SE 4.7 km/h 22.5 km/h 79% 0 mm 76 W/m2
15:59 25.6 °C 21.7 °C 1013.4 hPa SSE 1.3 km/h 22.5 km/h 79.3% 0 mm 90 W/m2
16:09 25.5 °C 21.8 °C 1013.4 hPa SE 1.1 km/h 6.4 km/h 80.1% 0 mm 95 W/m2
16:14 25.4 °C 21.9 °C 1013.4 hPa SE 2.7 km/h 19.3 km/h 80.7% 0 mm 100 W/m2
16:19 25.4 °C 21.8 °C 1013.4 hPa ESE 3.1 km/h 19.3 km/h 80.7% 0 mm 107 W/m2
16:24 25.4 °C 21.9 °C 1013.4 hPa SE 1.6 km/h 19.3 km/h 81% 0 mm 113 W/m2
16:29 25.4 °C 21.9 °C 1013.4 hPa SE 1.9 km/h 19.3 km/h 81% 0 mm 125 W/m2
16:34 25.4 °C 21.9 °C 1013.4 hPa SE 3.1 km/h 19.3 km/h 81% 0 mm 121 W/m2
16:39 25.4 °C 21.8 °C 1013.4 hPa SSE 2.6 km/h 11.3 km/h 80.8% 0 mm 109 W/m2
16:44 25.3 °C 21.8 °C 1013.4 hPa SSE 1.4 km/h 11.3 km/h 81% 0 mm 127 W/m2
16:49 25.3 °C 21.8 °C 1013.4 hPa SSE 1.8 km/h 11.3 km/h 81% 0 mm 111 W/m2
16:54 25.3 °C 21.8 °C 1013.4 hPa SE 4.5 km/h 16.1 km/h 81% 0 mm 98 W/m2
16:59 25.3 °C 21.8 °C 1013.8 hPa SE 4.2 km/h 17.7 km/h 81% 0 mm 93 W/m2
17:04 25.3 °C 21.8 °C 1013.8 hPa South 2.1 km/h 20.9 km/h 81% 0 mm 90 W/m2
17:09 25.3 °C 21.9 °C 1013.8 hPa Calm   20.9 km/h 81.9% 0 mm 62 W/m2
17:14 25.2 °C 21.8 °C 1013.8 hPa ESE 1.1 km/h 20.9 km/h 81.6% 0 mm 49 W/m2
17:19 25.2 °C 21.9 °C 1013.8 hPa SE 0.3 km/h 20.9 km/h 82% 0 mm 26 W/m2
17:24 25.1 °C 21.8 °C 1013.8 hPa ESE 0.6 km/h 20.9 km/h 82% 0 mm 33 W/m2
17:29 25.1 °C 21.8 °C 1013.8 hPa SE 0.8 km/h 20.9 km/h 82% 0 mm 26 W/m2
17:34 24.9 °C 21.7 °C 1013.8 hPa ESE 2.1 km/h 20.9 km/h 82% 0 mm 21 W/m2
17:39 24.9 °C 21.8 °C 1013.8 hPa SE 2.7 km/h 17.7 km/h 82.8% 0 mm 19 W/m2
17:44 24.8 °C 21.7 °C 1013.8 hPa ESE 3.2 km/h 19.3 km/h 83% 0 mm 21 W/m2
17:49 24.7 °C 21.6 °C 1014.1 hPa SE 2.7 km/h 19.3 km/h 83.1% 0 mm 21 W/m2
17:54 24.6 °C 21.7 °C 1014.1 hPa SE 1.1 km/h 19.3 km/h 84% 0 mm 19 W/m2
17:58 24.6 °C 21.7 °C 1014.1 hPa SSE 1.1 km/h 19.3 km/h 84% 0 mm 16 W/m2
18:04 24.5 °C 21.6 °C 1014.1 hPa SE 1.8 km/h 19.3 km/h 84% 0 mm 12 W/m2
18:09 24.5 °C 21.6 °C 1014.1 hPa SSE 2.6 km/h 11.3 km/h 84% 0 mm 9 W/m2
18:14 24.4 °C 21.6 °C 1014.4 hPa SE 3.7 km/h 16.1 km/h 84% 0 mm 7 W/m2
18:19 24.3 °C 21.5 °C 1014.4 hPa SE 2.3 km/h 17.7 km/h 84% 0 mm 5 W/m2
18:24 24.3 °C 21.6 °C 1014.4 hPa SE 3.5 km/h 19.3 km/h 85% 0 mm 5 W/m2
18:29 24.3 °C 21.6 °C 1014.4 hPa ESE 1.8 km/h 19.3 km/h 85% 0 mm 0 W/m2
18:34 24.2 °C 21.6 °C 1014.4 hPa SE 1.1 km/h 19.3 km/h 85% 0 mm 0 W/m2
18:39 24.2 °C 21.6 °C 1014.4 hPa ESE 1.6 km/h 12.9 km/h 85.2% 0 mm 0 W/m2
18:44 24.2 °C 21.7 °C 1014.1 hPa SE 3.5 km/h 19.3 km/h 86% 0 mm 0 W/m2
18:49 24.1 °C 21.6 °C 1014.1 hPa SE 6.6 km/h 19.3 km/h 86% 0 mm 0 W/m2
18:54 24.1 °C 21.6 °C 1014.1 hPa ESE 1 km/h 19.3 km/h 86% 0 mm 0 W/m2
18:59 24 °C 21.6 °C 1014.1 hPa SSE 0.6 km/h 19.3 km/h 86.2% 0 mm 0 W/m2
19:04 24 °C 21.7 °C 1014.1 hPa SE 0.6 km/h 19.3 km/h 87% 0 mm 0 W/m2
19:09 23.9 °C 21.7 °C 1014.1 hPa SE 0.6 km/h 8 km/h 87% 0 mm 0 W/m2
19:14 23.9 °C 21.7 °C 1014.1 hPa ESE 1.9 km/h 14.5 km/h 87% 0 mm 0 W/m2
19:19 23.9 °C 21.7 °C 1014.1 hPa ESE 1.3 km/h 14.5 km/h 87% 0 mm 0 W/m2
19:24 23.9 °C 21.7 °C 1014.1 hPa SE 2.1 km/h 14.5 km/h 87.3% 0 mm 0 W/m2
19:29 23.9 °C 21.8 °C 1014.1 hPa SE 1.6 km/h 14.5 km/h 88% 0 mm 0 W/m2
19:34 23.9 °C 21.8 °C 1014.1 hPa SSE 1.1 km/h 17.7 km/h 88% 0 mm 0 W/m2
19:39 23.9 °C 21.8 °C 1014.1 hPa SE 1.1 km/h 17.7 km/h 88% 0 mm 0 W/m2
19:44 23.9 °C 21.8 °C 1014.1 hPa ESE 1.4 km/h 17.7 km/h 88% 0 mm 0 W/m2
19:49 23.9 °C 21.8 °C 1013.8 hPa SE 0.8 km/h 17.7 km/h 88% 0 mm 0 W/m2
19:54 23.9 °C 21.8 °C 1013.8 hPa ESE 1 km/h 17.7 km/h 88% 0 mm 0 W/m2
19:59 23.8 °C 21.7 °C 1013.8 hPa SSW 0.8 km/h 17.7 km/h 88% 0 mm 0 W/m2
20:00 23.8 °C 21.7 °C 1013.8 hPa Calm   17.7 km/h 88% 0 mm 0 W/m2
20:09 23.8 °C 21.7 °C 1013.8 hPa SE 2.3 km/h 9.7 km/h 88% 0 mm 0 W/m2
20:14 23.8 °C 21.7 °C 1013.8 hPa South 1.3 km/h 9.7 km/h 88% 0 mm 0 W/m2
20:19 23.8 °C 21.7 °C 1013.8 hPa South 1 km/h 9.7 km/h 88% 0 mm 0 W/m2
20:24 23.8 °C 21.8 °C 1013.8 hPa SSE 0.3 km/h 9.7 km/h 88% 0 mm 0 W/m2
20:29 23.9 °C 21.8 °C 1013.8 hPa SSE 1.4 km/h 9.7 km/h 88.2% 0 mm 0 W/m2
20:34 23.9 °C 21.9 °C 1013.8 hPa SE 1.1 km/h 14.5 km/h 88.7% 0 mm 0 W/m2
20:39 23.9 °C 22 °C 1013.8 hPa SSE 2.1 km/h 14.5 km/h 89% 0 mm 0 W/m2
20:44 23.9 °C 22 °C 1013.8 hPa SE 2.3 km/h 16.1 km/h 89% 0 mm 0 W/m2
20:49 23.9 °C 22 °C 1013.8 hPa SE 2.4 km/h 16.1 km/h 88.9% 0 mm 0 W/m2
20:54 24 °C 21.9 °C 1014.1 hPa SSE 2.4 km/h 16.1 km/h 88.3% 0 mm 0 W/m2
20:59 24 °C 21.9 °C 1014.1 hPa ESE 1.1 km/h 16.1 km/h 88% 0 mm 0 W/m2
21:04 24 °C 21.9 °C 1014.1 hPa SE 2.3 km/h 16.1 km/h 88% 0 mm 0 W/m2
21:09 24 °C 21.9 °C 1014.1 hPa SE 0.8 km/h 16.1 km/h 88% 0 mm 0 W/m2
21:14 24.1 °C 21.9 °C 1014.1 hPa SE 2.6 km/h 16.1 km/h 88% 0 mm 0 W/m2
21:19 24.1 °C 21.9 °C 1014.1 hPa ESE 1.3 km/h 16.1 km/h 88% 0 mm 0 W/m2
21:24 24.1 °C 21.9 °C 1014.1 hPa ESE 1.3 km/h 16.1 km/h 88% 0 mm 0 W/m2
21:29 24.1 °C 21.9 °C 1014.1 hPa SE 2.4 km/h 16.1 km/h 88% 0 mm 0 W/m2
21:34 24.1 °C 21.9 °C 1014.1 hPa SE 1.8 km/h 16.1 km/h 88% 0 mm 0 W/m2
21:39 24.1 °C 21.9 °C 1014.1 hPa Calm   9.7 km/h 88% 0 mm 0 W/m2
21:44 24.1 °C 21.9 °C 1014.1 hPa Calm   9.7 km/h 88% 0 mm 0 W/m2
21:49 24.1 °C 22 °C 1014.1 hPa ESE 0.5 km/h 9.7 km/h 88.2% 0 mm 0 W/m2
21:54 24.1 °C 22 °C 1014.1 hPa ESE 0.8 km/h 9.7 km/h 88.5% 0 mm 0 W/m2
21:59 24 °C 22.1 °C 1014.1 hPa ESE 1 km/h 9.7 km/h 89% 0 mm 0 W/m2
22:04 24 °C 22.1 °C 1014.1 hPa ESE 1 km/h 11.3 km/h 89% 0 mm 0 W/m2
22:09 24 °C 22.1 °C 1014.1 hPa SE 2.9 km/h 17.7 km/h 89% 0 mm 0 W/m2
22:14 24 °C 22.1 °C 1013.8 hPa ESE 0.3 km/h 17.7 km/h 89% 0 mm 0 W/m2
22:19 24 °C 22.1 °C 1013.8 hPa SSE 0.3 km/h 17.7 km/h 89% 0 mm 0 W/m2
22:24 23.9 °C 22 °C 1013.8 hPa SSE 1.1 km/h 17.7 km/h 89% 0 mm 0 W/m2
22:29 23.9 °C 22 °C 1013.8 hPa ESE 1 km/h 17.7 km/h 89% 0 mm 0 W/m2
22:34 23.9 °C 22 °C 1013.8 hPa SSE 1.4 km/h 17.7 km/h 89% 0 mm 0 W/m2
22:39 23.9 °C 22 °C 1013.8 hPa ESE 2.3 km/h 20.9 km/h 89% 0 mm 0 W/m2
22:44 23.9 °C 22 °C 1013.8 hPa SE 1.8 km/h 20.9 km/h 89% 0 mm 0 W/m2
22:49 23.9 °C 22 °C 1013.8 hPa SE 1.9 km/h 20.9 km/h 89% 0 mm 0 W/m2
22:54 23.9 °C 22.1 °C 1013.8 hPa SE 1.6 km/h 20.9 km/h 89% 0 mm 0 W/m2
22:59 24 °C 22.1 °C 1013.8 hPa SE 1.6 km/h 20.9 km/h 89% 0 mm 0 W/m2
23:04 23.9 °C 22.1 °C 1013.8 hPa SE 1.4 km/h 20.9 km/h 89% 0 mm 0 W/m2
23:09 23.9 °C 22 °C 1013.8 hPa ESE 1.9 km/h 20.9 km/h 89% 0 mm 0 W/m2
23:14 23.9 °C 22 °C 1013.8 hPa ESE 1.9 km/h 20.9 km/h 89% 0 mm 0 W/m2
23:19 23.9 °C 22 °C 1013.8 hPa Calm   20.9 km/h 89% 0 mm 0 W/m2
23:24 23.9 °C 22 °C 1013.4 hPa SE 2.1 km/h 20.9 km/h 89% 0 mm 0 W/m2
23:29 23.9 °C 22 °C 1013.4 hPa SE 1.6 km/h 20.9 km/h 89% 0 mm 0 W/m2
23:34 23.9 °C 22 °C 1013.4 hPa SSE 1 km/h 20.9 km/h 89% 0 mm 0 W/m2
23:39 23.9 °C 22 °C 1013.4 hPa SE 2.6 km/h 8 km/h 89% 0 mm 0 W/m2
23:44 23.9 °C 22 °C 1013.4 hPa SE 2.3 km/h 11.3 km/h 89% 0 mm 0 W/m2
23:49 23.9 °C 22.1 °C 1013.4 hPa SE 1 km/h 11.3 km/h 89% 0 mm 0 W/m2
23:54 23.9 °C 22.1 °C 1013.4 hPa SE 1.1 km/h 11.3 km/h 89% 0 mm 0 W/m2
23:59 23.9 °C 22.1 °C 1013.4 hPa SE 2.6 km/h 11.3 km/h 89% 0 mm 0 W/m2
Hartford County Weather
Compliments of Weather Underground - 4 mb